Time;durP1;ratioP1;P1;durP2;ratioP2;P2;SDS_P1;SDS_P2;PMS_P1;PMS_P2;Temp;Humidity;BMP_temperature;BMP_pressure;BME280_temperature;BME280_humidity;BME280_pressure;Samples;Min_cycle;Max_cycle;Signal;HPM_P1;HPM_P2
2022/03/14 00:00:44;;;;;;;24.70;19.00;;;;;;;;;;5069973;28;20382;-82
2022/03/14 00:03:12;;;;;;;26.07;18.67;;;;;;;;;;5066748;28;20481;-82
2022/03/14 00:05:39;;;;;;;26.00;18.52;;;;;;;;;;5052387;28;20884;-83
2022/03/14 00:08:06;;;;;;;25.02;18.17;;;;;;;;;;5060262;28;20390;-83
2022/03/14 00:10:34;;;;;;;26.15;18.30;;;;;;;;;;5068711;28;20440;-82
2022/03/14 00:13:00;;;;;;;23.87;18.03;;;;;;;;;;5056056;28;20423;-81
2022/03/14 00:15:33;;;;;;;26.60;19.23;;;;;;;;;;5062494;28;20385;-82
2022/03/14 00:18:05;;;;;;;24.90;18.67;;;;;;;;;;5052994;28;20403;-82
2022/03/14 00:20:31;;;;;;;23.85;18.17;;;;;;;;;;5070418;28;20374;-83
2022/03/14 00:22:58;;;;;;;25.63;18.45;;;;;;;;;;5066833;28;20380;-82
2022/03/14 00:25:24;;;;;;;22.77;16.80;;;;;;;;;;5050065;28;20380;-82
2022/03/14 00:27:50;;;;;;;23.15;17.85;;;;;;;;;;5055010;28;20752;-82
2022/03/14 00:30:16;;;;;;;24.17;18.00;;;;;;;;;;5065508;28;20393;-82
2022/03/14 00:32:42;;;;;;;23.05;17.85;;;;;;;;;;5057191;28;20403;-81
2022/03/14 00:35:09;;;;;;;25.15;18.52;;;;;;;;;;5048135;28;20379;-83
2022/03/14 00:37:36;;;;;;;24.97;18.03;;;;;;;;;;5069245;28;20477;-83
2022/03/14 00:40:03;;;;;;;24.42;18.10;;;;;;;;;;5070222;28;20370;-83
2022/03/14 00:42:29;;;;;;;23.38;17.70;;;;;;;;;;5068611;28;20378;-82
2022/03/14 00:44:55;;;;;;;23.23;17.98;;;;;;;;;;5053151;28;20467;-82
2022/03/14 00:47:21;;;;;;;24.20;18.10;;;;;;;;;;5070622;28;20898;-83
2022/03/14 00:49:47;;;;;;;23.67;17.20;;;;;;;;;;5049254;28;20918;-83
2022/03/14 00:52:16;;;;;;;25.20;18.35;;;;;;;;;;5047632;28;20885;-83
2022/03/14 00:54:42;;;;;;;24.17;17.35;;;;;;;;;;5047628;28;20409;-82
2022/03/14 00:57:08;;;;;;;23.95;17.83;;;;;;;;;;5047646;28;20384;-82
2022/03/14 00:59:34;;;;;;;24.10;17.73;;;;;;;;;;5047633;28;20893;-82
2022/03/14 01:02:00;;;;;;;23.15;17.95;;;;;;;;;;5049776;28;20403;-82
2022/03/14 01:04:27;;;;;;;24.17;18.20;;;;;;;;;;5047837;28;20440;-83
2022/03/14 01:06:53;;;;;;;25.25;18.35;;;;;;;;;;5049283;28;20384;-82
2022/03/14 01:09:19;;;;;;;25.15;17.83;;;;;;;;;;5048085;28;20458;-82
2022/03/14 01:11:45;;;;;;;22.75;17.98;;;;;;;;;;5048637;28;20395;-81
2022/03/14 01:14:14;;;;;;;23.30;16.92;;;;;;;;;;5047849;28;20371;-81
2022/03/14 01:16:40;;;;;;;22.55;16.67;;;;;;;;;;5047839;28;20383;-81
2022/03/14 01:19:09;;;;;;;22.95;17.83;;;;;;;;;;5047696;28;20388;-83
2022/03/14 01:21:38;;;;;;;24.52;18.13;;;;;;;;;;5047677;28;20854;-82
2022/03/14 01:24:04;;;;;;;21.27;16.80;;;;;;;;;;5050339;28;20433;-81
2022/03/14 01:26:30;;;;;;;26.37;18.57;;;;;;;;;;5069082;28;20416;-82
2022/03/14 01:28:57;;;;;;;23.73;18.27;;;;;;;;;;5052581;28;20475;-82
2022/03/14 01:31:23;;;;;;;23.95;17.90;;;;;;;;;;5066664;28;20402;-82
2022/03/14 01:33:49;;;;;;;25.38;18.48;;;;;;;;;;5066527;28;20828;-82
2022/03/14 01:36:15;;;;;;;26.08;18.65;;;;;;;;;;5077267;28;20416;-80
2022/03/14 01:38:42;;;;;;;25.70;19.10;;;;;;;;;;5065977;28;20387;-82
2022/03/14 01:41:10;;;;;;;24.27;18.57;;;;;;;;;;5048652;28;20419;-82
2022/03/14 01:43:36;;;;;;;25.50;18.77;;;;;;;;;;5054191;28;20390;-82
2022/03/14 01:46:02;;;;;;;22.60;17.67;;;;;;;;;;5068660;28;20420;-82
2022/03/14 01:48:28;;;;;;;24.25;17.83;;;;;;;;;;5056128;28;20419;-82
2022/03/14 01:50:54;;;;;;;25.05;18.55;;;;;;;;;;5054818;28;20386;-81
2022/03/14 01:53:21;;;;;;;23.65;17.95;;;;;;;;;;5052640;28;20883;-82
2022/03/14 01:55:48;;;;;;;27.35;18.30;;;;;;;;;;5050138;28;20394;-82
2022/03/14 01:58:15;;;;;;;23.27;17.45;;;;;;;;;;5059606;28;20460;-82
2022/03/14 02:00:41;;;;;;;23.52;17.70;;;;;;;;;;5062098;28;20752;-81
2022/03/14 02:03:07;;;;;;;24.02;18.10;;;;;;;;;;5051883;28;20441;-81
2022/03/14 02:05:37;;;;;;;21.85;17.02;;;;;;;;;;5049879;28;20376;-82
2022/03/14 02:08:03;;;;;;;24.20;18.13;;;;;;;;;;5066862;28;20388;-82
2022/03/14 02:10:29;;;;;;;23.85;18.40;;;;;;;;;;5068600;28;20921;-82
2022/03/14 02:12:56;;;;;;;23.60;17.85;;;;;;;;;;5068768;28;20405;-82
2022/03/14 02:15:22;;;;;;;23.83;17.80;;;;;;;;;;5066962;28;20464;-82
2022/03/14 02:17:49;;;;;;;27.23;18.80;;;;;;;;;;5065146;28;20393;-82
2022/03/14 02:20:16;;;;;;;24.70;18.65;;;;;;;;;;5047369;28;20368;-82
2022/03/14 02:22:42;;;;;;;24.08;18.30;;;;;;;;;;5052243;28;20439;-82
2022/03/14 02:25:11;;;;;;;25.10;19.05;;;;;;;;;;5050430;28;20474;-82
2022/03/14 02:27:38;;;;;;;26.83;18.70;;;;;;;;;;5050742;28;20426;-81
2022/03/14 02:30:04;;;;;;;25.98;18.65;;;;;;;;;;5052059;28;20396;-82
2022/03/14 02:32:32;;;;;;;24.25;18.05;;;;;;;;;;5053539;28;20494;-81
2022/03/14 02:34:58;;;;;;;25.35;18.95;;;;;;;;;;5052136;28;20406;-82
2022/03/14 02:37:24;;;;;;;23.67;18.23;;;;;;;;;;5050224;28;20903;-81
2022/03/14 02:39:52;;;;;;;23.88;17.92;;;;;;;;;;5050946;28;20388;-82
2022/03/14 02:42:18;;;;;;;25.17;18.70;;;;;;;;;;5050933;28;20446;-82
2022/03/14 02:44:44;;;;;;;24.85;18.45;;;;;;;;;;5052068;28;20906;-82
2022/03/14 02:47:11;;;;;;;24.88;18.20;;;;;;;;;;5051924;28;20425;-82
2022/03/14 02:49:37;;;;;;;26.65;19.00;;;;;;;;;;5050536;28;20380;-81
2022/03/14 02:52:03;;;;;;;25.52;18.75;;;;;;;;;;5051807;28;20391;-82
2022/03/14 02:54:29;;;;;;;26.63;19.23;;;;;;;;;;5054070;28;20378;-82
2022/03/14 02:56:58;;;;;;;25.60;18.75;;;;;;;;;;5071720;28;20370;-81
2022/03/14 02:59:25;;;;;;;26.00;19.05;;;;;;;;;;5069890;28;20431;-81
2022/03/14 03:01:51;;;;;;;27.15;18.40;;;;;;;;;;5060602;28;21415;-82
2022/03/14 03:04:17;;;;;;;25.80;18.23;;;;;;;;;;5054746;28;20426;-82
2022/03/14 03:06:44;;;;;;;23.08;17.88;;;;;;;;;;5067429;28;20752;-82
2022/03/14 03:09:10;;;;;;;25.00;18.88;;;;;;;;;;5050952;28;20392;-81
2022/03/14 03:11:36;;;;;;;25.63;18.67;;;;;;;;;;5050678;28;20524;-81
2022/03/14 03:14:03;;;;;;;26.27;18.67;;;;;;;;;;5076854;28;20424;-83
2022/03/14 03:16:30;;;;;;;23.60;17.80;;;;;;;;;;5077209;28;20460;-82
2022/03/14 03:18:56;;;;;;;23.30;17.30;;;;;;;;;;5082142;28;20442;-81
2022/03/14 03:21:24;;;;;;;23.85;17.33;;;;;;;;;;5085144;28;20385;-81
2022/03/14 03:23:50;;;;;;;23.58;17.23;;;;;;;;;;5073038;28;20476;-82
2022/03/14 03:26:16;;;;;;;26.90;17.50;;;;;;;;;;5055859;28;20372;-82
2022/03/14 03:28:42;;;;;;;24.23;17.27;;;;;;;;;;5051271;28;20371;-81
2022/03/14 03:31:09;;;;;;;24.58;17.55;;;;;;;;;;5051020;28;20388;-81
2022/03/14 03:33:36;;;;;;;22.90;17.17;;;;;;;;;;5048917;28;20383;-82
2022/03/14 03:36:03;;;;;;;24.77;17.60;;;;;;;;;;5049836;28;20412;-82
2022/03/14 03:38:30;;;;;;;25.02;17.25;;;;;;;;;;5049416;28;20379;-82
2022/03/14 03:40:56;;;;;;;23.13;17.48;;;;;;;;;;5050996;28;20371;-82
2022/03/14 03:43:22;;;;;;;23.17;16.73;;;;;;;;;;5050071;28;20383;-82
2022/03/14 03:45:48;;;;;;;23.50;17.17;;;;;;;;;;5050534;28;20419;-83
2022/03/14 03:48:14;;;;;;;27.08;17.20;;;;;;;;;;5049631;28;20808;-81
2022/03/14 03:50:42;;;;;;;22.45;16.67;;;;;;;;;;5051160;28;20865;-81
2022/03/14 03:53:11;;;;;;;22.80;16.70;;;;;;;;;;5051937;28;20400;-81
2022/03/14 03:55:38;;;;;;;23.15;16.83;;;;;;;;;;5049350;28;20368;-81
2022/03/14 03:58:04;;;;;;;22.48;16.70;;;;;;;;;;5049256;28;20378;-82
2022/03/14 04:00:30;;;;;;;23.42;16.88;;;;;;;;;;5048846;28;20403;-82
2022/03/14 04:02:56;;;;;;;24.13;16.42;;;;;;;;;;5066816;28;20363;-81
2022/03/14 04:05:25;;;;;;;25.88;16.58;;;;;;;;;;5068597;28;20386;-82
2022/03/14 04:07:54;;;;;;;28.00;16.57;;;;;;;;;;5065640;28;20379;-82
2022/03/14 04:10:20;;;;;;;22.90;16.38;;;;;;;;;;5053259;28;20398;-80
2022/03/14 04:12:47;;;;;;;24.75;16.27;;;;;;;;;;5067394;28;20895;-82
2022/03/14 04:15:14;;;;;;;23.17;16.42;;;;;;;;;;5064107;28;21276;-81
2022/03/14 04:17:41;;;;;;;23.65;16.23;;;;;;;;;;5049701;28;20416;-82
2022/03/14 04:20:08;;;;;;;23.40;16.67;;;;;;;;;;5055276;28;21890;-81
2022/03/14 04:22:38;;;;;;;25.00;17.13;;;;;;;;;;5068681;28;20366;-82
2022/03/14 04:25:04;;;;;;;23.63;17.00;;;;;;;;;;5056014;28;20372;-82
2022/03/14 04:27:30;;;;;;;23.02;16.15;;;;;;;;;;5049958;28;20392;-81
2022/03/14 04:29:58;;;;;;;45.97;18.73;;;;;;;;;;5048446;28;20410;-82
2022/03/14 04:32:24;;;;;;;25.65;16.85;;;;;;;;;;5049619;28;20849;-81
2022/03/14 04:34:50;;;;;;;25.30;17.08;;;;;;;;;;5050082;28;20458;-82
2022/03/14 04:37:16;;;;;;;25.15;16.60;;;;;;;;;;5062569;28;20381;-82
2022/03/14 04:39:43;;;;;;;21.92;16.17;;;;;;;;;;5068568;28;20470;-82
2022/03/14 04:42:09;;;;;;;21.48;15.50;;;;;;;;;;5069717;28;20373;-81
2022/03/14 04:44:36;;;;;;;21.52;16.02;;;;;;;;;;5069365;28;20420;-82
2022/03/14 04:47:02;;;;;;;22.92;16.55;;;;;;;;;;5067083;28;20386;-82
2022/03/14 04:49:28;;;;;;;25.77;16.60;;;;;;;;;;5072410;28;20733;-80
2022/03/14 04:51:56;;;;;;;25.65;17.63;;;;;;;;;;5076590;28;20444;-82
2022/03/14 04:54:25;;;;;;;25.00;16.60;;;;;;;;;;5072530;28;20370;-81
2022/03/14 04:56:51;;;;;;;25.73;16.63;;;;;;;;;;5079484;28;20864;-82
2022/03/14 04:59:17;;;;;;;22.33;16.42;;;;;;;;;;5069900;28;20461;-81
2022/03/14 05:01:43;;;;;;;22.85;16.20;;;;;;;;;;5069104;28;20457;-81
2022/03/14 05:04:09;;;;;;;24.73;16.92;;;;;;;;;;5067915;28;20374;-81
2022/03/14 05:06:36;;;;;;;22.85;16.77;;;;;;;;;;5068074;28;20385;-81
2022/03/14 05:09:02;;;;;;;22.85;16.40;;;;;;;;;;5069346;28;20460;-82
2022/03/14 05:11:28;;;;;;;21.77;16.03;;;;;;;;;;5068334;28;20872;-81
2022/03/14 05:14:04;;;;;;;23.15;16.75;;;;;;;;;;5054547;28;20382;-82
2022/03/14 05:16:34;;;;;;;30.67;17.98;;;;;;;;;;5057265;28;20706;-82
2022/03/14 05:19:00;;;;;;;29.35;16.95;;;;;;;;;;5086157;28;20384;-81
2022/03/14 05:21:27;;;;;;;22.00;17.02;;;;;;;;;;5085427;28;20858;-81
2022/03/14 05:23:53;;;;;;;22.42;16.55;;;;;;;;;;5054533;28;20395;-83
2022/03/14 05:26:19;;;;;;;23.05;17.15;;;;;;;;;;5059364;28;20880;-80
2022/03/14 05:28:45;;;;;;;24.17;16.87;;;;;;;;;;5050742;28;20375;-81
2022/03/14 05:31:11;;;;;;;29.27;17.75;;;;;;;;;;5049020;28;21229;-82
2022/03/14 05:33:37;;;;;;;23.92;17.73;;;;;;;;;;5032019;28;20880;-82
2022/03/14 05:36:03;;;;;;;23.50;17.10;;;;;;;;;;5049273;28;20372;-82
2022/03/14 05:38:29;;;;;;;48.20;19.07;;;;;;;;;;5048770;28;20379;-81
2022/03/14 05:40:56;;;;;;;29.92;17.17;;;;;;;;;;5048594;28;20418;-81
2022/03/14 05:43:24;;;;;;;23.75;15.93;;;;;;;;;;5051958;28;20401;-82
2022/03/14 05:45:50;;;;;;;24.63;17.52;;;;;;;;;;5068179;28;20416;-80
2022/03/14 05:48:16;;;;;;;23.60;16.83;;;;;;;;;;5068752;28;20414;-82
2022/03/14 05:50:43;;;;;;;34.15;17.10;;;;;;;;;;5067834;28;20404;-82
2022/03/14 05:53:11;;;;;;;24.20;16.70;;;;;;;;;;5068365;28;20428;-81
2022/03/14 05:55:39;;;;;;;22.27;16.20;;;;;;;;;;5069965;28;20432;-81
2022/03/14 05:58:06;;;;;;;23.07;16.67;;;;;;;;;;5070533;28;20381;-82
2022/03/14 06:00:33;;;;;;;21.70;16.40;;;;;;;;;;5060671;28;20879;-81
2022/03/14 06:02:59;;;;;;;24.08;17.10;;;;;;;;;;5063605;28;20386;-81
2022/03/14 06:05:25;;;;;;;23.10;16.80;;;;;;;;;;5061557;28;20473;-82
2022/03/14 06:07:51;;;;;;;26.13;16.98;;;;;;;;;;5062435;28;20535;-82
2022/03/14 06:10:18;;;;;;;162.50;28.87;;;;;;;;;;5059724;28;20458;-81
2022/03/14 06:12:48;;;;;;;25.90;16.63;;;;;;;;;;5063617;28;20405;-84
2022/03/14 06:15:16;;;;;;;24.35;17.20;;;;;;;;;;5063122;28;20953;-84
2022/03/14 06:17:44;;;;;;;24.42;17.45;;;;;;;;;;5063940;28;20447;-84
2022/03/14 06:20:11;;;;;;;24.95;16.63;;;;;;;;;;5060855;28;20404;-82
2022/03/14 06:22:38;;;;;;;31.85;18.15;;;;;;;;;;5062321;28;20376;-81
2022/03/14 06:25:05;;;;;;;25.02;17.63;;;;;;;;;;5062364;28;20386;-82
2022/03/14 06:27:37;;;;;;;26.83;17.70;;;;;;;;;;5062882;28;20437;-83
2022/03/14 06:30:06;;;;;;;25.27;17.75;;;;;;;;;;5061392;28;20407;-82
2022/03/14 06:32:36;;;;;;;71.47;21.95;;;;;;;;;;5058212;28;20470;-82
2022/03/14 06:35:06;;;;;;;55.33;19.77;;;;;;;;;;5063963;28;20408;-82
2022/03/14 06:37:32;;;;;;;26.92;17.60;;;;;;;;;;5061525;28;20382;-83
2022/03/14 06:39:59;;;;;;;52.65;19.40;;;;;;;;;;5064379;28;20893;-82
2022/03/14 06:42:25;;;;;;;28.13;17.43;;;;;;;;;;5060767;28;20399;-82
2022/03/14 06:44:51;;;;;;;23.42;17.02;;;;;;;;;;5061656;28;20474;-82
2022/03/14 06:47:18;;;;;;;35.43;18.13;;;;;;;;;;5059777;28;20388;-82
2022/03/14 06:49:45;;;;;;;27.23;17.50;;;;;;;;;;5062448;28;20389;-82
2022/03/14 06:52:14;;;;;;;25.30;17.15;;;;;;;;;;5065713;28;20444;-82
2022/03/14 06:54:41;;;;;;;25.67;17.27;;;;;;;;;;5065435;28;20585;-81
2022/03/14 06:57:07;;;;;;;22.55;16.73;;;;;;;;;;5068521;28;20369;-82
2022/03/14 06:59:37;;;;;;;22.60;16.45;;;;;;;;;;5061592;28;21133;-83
2022/03/14 07:02:03;;;;;;;26.77;18.25;;;;;;;;;;5065619;28;20366;-81
2022/03/14 07:04:29;;;;;;;23.55;17.45;;;;;;;;;;5063670;28;20435;-83
2022/03/14 07:06:55;;;;;;;26.00;17.65;;;;;;;;;;5060692;28;20884;-83
2022/03/14 07:09:22;;;;;;;22.35;16.23;;;;;;;;;;5060212;28;20366;-84
2022/03/14 07:11:51;;;;;;;29.73;17.77;;;;;;;;;;5062138;28;20904;-84
2022/03/14 07:14:21;;;;;;;22.83;17.08;;;;;;;;;;5061738;28;20383;-83
2022/03/14 07:16:47;;;;;;;64.97;20.40;;;;;;;;;;5062435;28;20476;-84
2022/03/14 07:19:13;;;;;;;25.85;17.77;;;;;;;;;;5062836;28;20432;-83
2022/03/14 07:21:39;;;;;;;27.63;17.15;;;;;;;;;;5063312;28;20467;-83
2022/03/14 07:24:05;;;;;;;20.80;15.93;;;;;;;;;;5061813;28;20826;-82
2022/03/14 07:26:32;;;;;;;26.45;17.65;;;;;;;;;;5061091;28;20480;-83
2022/03/14 07:28:58;;;;;;;30.05;17.05;;;;;;;;;;5059498;28;20369;-84
2022/03/14 07:31:24;;;;;;;25.45;16.15;;;;;;;;;;5060567;28;20465;-83
2022/03/14 07:33:51;;;;;;;30.52;16.80;;;;;;;;;;5063223;28;20429;-82
2022/03/14 07:36:17;;;;;;;24.92;16.20;;;;;;;;;;5054797;28;20927;-82
2022/03/14 07:38:43;;;;;;;49.83;17.90;;;;;;;;;;5059506;28;20469;-82
2022/03/14 07:41:11;;;;;;;21.52;16.23;;;;;;;;;;5060921;28;20375;-82
2022/03/14 07:43:38;;;;;;;22.85;15.80;;;;;;;;;;5061299;28;20449;-82
2022/03/14 07:46:04;;;;;;;26.58;16.08;;;;;;;;;;5063869;28;20364;-81
2022/03/14 07:48:30;;;;;;;47.42;17.27;;;;;;;;;;5061946;28;20388;-83
2022/03/14 07:50:56;;;;;;;20.73;15.13;;;;;;;;;;5060062;28;20419;-81
2022/03/14 07:53:22;;;;;;;19.87;15.23;;;;;;;;;;5065088;28;20446;-83
2022/03/14 07:55:48;;;;;;;22.50;15.50;;;;;;;;;;5057716;28;20806;-84
2022/03/14 07:58:14;;;;;;;20.75;14.65;;;;;;;;;;5062370;28;20390;-83
2022/03/14 08:00:41;;;;;;;21.13;15.38;;;;;;;;;;5062756;28;20748;-84
2022/03/14 08:03:06;;;;;;;22.20;15.10;;;;;;;;;;5064330;28;21134;-82
2022/03/14 08:05:33;;;;;;;18.40;14.35;;;;;;;;;;5066886;28;20435;-83
2022/03/14 08:08:00;;;;;;;19.70;15.27;;;;;;;;;;5071117;28;20378;-83
2022/03/14 08:10:26;;;;;;;20.33;14.98;;;;;;;;;;5065766;28;20422;-82
2022/03/14 08:12:54;;;;;;;22.53;15.50;;;;;;;;;;5059754;28;20398;-83
2022/03/14 08:15:24;;;;;;;21.73;15.65;;;;;;;;;;5070493;28;20916;-82
2022/03/14 08:17:51;;;;;;;21.48;15.05;;;;;;;;;;5060515;28;20399;-79
2022/03/14 08:20:19;;;;;;;18.75;14.48;;;;;;;;;;5055706;28;20384;-82
2022/03/14 08:22:49;;;;;;;19.05;13.93;;;;;;;;;;5053332;28;20374;-83
2022/03/14 08:25:17;;;;;;;20.25;15.00;;;;;;;;;;5050147;28;20459;-82
2022/03/14 08:27:43;;;;;;;22.20;15.32;;;;;;;;;;5052235;28;20372;-82
2022/03/14 08:30:09;;;;;;;36.67;17.40;;;;;;;;;;5034999;28;20909;-81
2022/03/14 08:32:35;;;;;;;20.48;14.27;;;;;;;;;;5066019;28;20447;-83
2022/03/14 08:35:07;;;;;;;20.95;14.18;;;;;;;;;;5064825;28;20371;-83
2022/03/14 08:37:34;;;;;;;19.40;14.52;;;;;;;;;;5062362;28;20383;-82
2022/03/14 08:40:00;;;;;;;22.63;15.35;;;;;;;;;;5074059;28;20991;-83
2022/03/14 08:42:26;;;;;;;20.67;14.18;;;;;;;;;;5050161;28;20450;-83
2022/03/14 08:44:52;;;;;;;20.10;14.53;;;;;;;;;;5050745;28;20367;-83
2022/03/14 08:47:18;;;;;;;28.10;14.93;;;;;;;;;;5053776;28;20368;-83
2022/03/14 08:49:44;;;;;;;26.67;13.95;;;;;;;;;;5069455;28;20394;-83
2022/03/14 08:52:11;;;;;;;26.00;14.02;;;;;;;;;;5068036;28;20924;-81
2022/03/14 08:54:37;;;;;;;17.98;14.00;;;;;;;;;;5050604;28;20731;-82
2022/03/14 08:57:03;;;;;;;17.88;13.57;;;;;;;;;;5061014;28;20399;-83
2022/03/14 08:59:29;;;;;;;16.95;13.23;;;;;;;;;;5071241;28;20361;-83
2022/03/14 09:01:55;;;;;;;37.10;14.63;;;;;;;;;;5070446;28;20385;-83
2022/03/14 09:04:21;;;;;;;21.13;13.80;;;;;;;;;;5069446;28;20402;-82
2022/03/14 09:06:48;;;;;;;19.87;13.30;;;;;;;;;;5070223;28;20441;-81
2022/03/14 09:09:15;;;;;;;21.02;12.57;;;;;;;;;;5072610;28;20381;-82
2022/03/14 09:11:44;;;;;;;17.52;12.48;;;;;;;;;;5068352;28;20406;-84
2022/03/14 09:14:10;;;;;;;16.92;12.32;;;;;;;;;;5062196;28;20379;-82
2022/03/14 09:16:36;;;;;;;21.35;12.30;;;;;;;;;;5050976;28;20781;-83
2022/03/14 09:19:02;;;;;;;25.75;12.30;;;;;;;;;;5070311;28;20386;-83
2022/03/14 09:21:33;;;;;;;15.65;11.60;;;;;;;;;;5068798;28;20410;-82
2022/03/14 09:23:59;;;;;;;17.15;13.10;;;;;;;;;;5070308;28;20378;-84
2022/03/14 09:26:25;;;;;;;17.55;12.35;;;;;;;;;;5067222;28;20376;-82
2022/03/14 09:29:00;;;;;;;15.25;12.52;;;;;;;;;;5049396;28;20379;-85
2022/03/14 09:31:26;;;;;;;16.98;12.00;;;;;;;;;;5055537;28;20959;-83
2022/03/14 09:33:52;;;;;;;15.55;11.63;;;;;;;;;;5068610;28;20401;-83
2022/03/14 09:36:19;;;;;;;19.20;11.85;;;;;;;;;;5068279;28;20374;-83
2022/03/14 09:38:45;;;;;;;21.48;12.90;;;;;;;;;;5051880;28;20506;-83
2022/03/14 09:41:13;;;;;;;30.73;12.90;;;;;;;;;;5049940;28;20911;-83
2022/03/14 09:43:40;;;;;;;34.17;13.80;;;;;;;;;;5050557;28;20367;-83
2022/03/14 09:46:08;;;;;;;17.83;12.43;;;;;;;;;;5055114;28;20382;-82
2022/03/14 09:48:36;;;;;;;53.42;15.38;;;;;;;;;;5065317;28;20787;-81
2022/03/14 09:51:03;;;;;;;15.90;12.10;;;;;;;;;;5048731;28;20486;-83
2022/03/14 09:53:30;;;;;;;19.25;11.68;;;;;;;;;;5048232;28;20396;-83
2022/03/14 09:55:56;;;;;;;63.05;15.32;;;;;;;;;;5049264;28;20379;-83
2022/03/14 09:58:23;;;;;;;20.08;11.73;;;;;;;;;;5065520;28;21175;-81
2022/03/14 10:00:49;;;;;;;17.67;11.57;;;;;;;;;;5063073;28;20388;-83
2022/03/14 10:03:16;;;;;;;18.98;12.23;;;;;;;;;;5050185;28;20460;-82
2022/03/14 10:05:44;;;;;;;46.25;13.30;;;;;;;;;;5050832;28;20395;-81
2022/03/14 10:08:10;;;;;;;15.40;11.38;;;;;;;;;;5049743;28;20394;-84
2022/03/14 10:10:39;;;;;;;14.85;11.85;;;;;;;;;;5049220;28;20368;-83
2022/03/14 10:13:06;;;;;;;15.68;11.25;;;;;;;;;;5048859;28;20436;-82
2022/03/14 10:15:36;;;;;;;16.60;11.65;;;;;;;;;;5049560;28;20419;-83
2022/03/14 10:18:24;;;;;;;18.77;11.73;;;;;;;;;;5053514;28;20378;-83
2022/03/14 10:21:05;;;;;;;13.30;10.80;;;;;;;;;;5068652;28;20401;-84
2022/03/14 10:23:43;;;;;;;17.17;11.68;;;;;;;;;;5052358;28;20746;-82
2022/03/14 10:26:13;;;;;;;14.43;11.40;;;;;;;;;;5049516;28;20392;-83
2022/03/14 10:28:39;;;;;;;21.60;12.00;;;;;;;;;;5072326;28;20898;-83
2022/03/14 10:31:08;;;;;;;13.65;11.27;;;;;;;;;;5083374;28;20734;-84
2022/03/14 10:33:35;;;;;;;13.57;11.40;;;;;;;;;;5055041;28;20486;-83
2022/03/14 10:36:01;;;;;;;17.48;11.13;;;;;;;;;;5048899;28;20395;-82
2022/03/14 10:38:29;;;;;;;16.08;11.40;;;;;;;;;;5048200;28;20746;-84
2022/03/14 10:40:56;;;;;;;13.90;10.87;;;;;;;;;;5048629;28;20391;-82
2022/03/14 10:43:26;;;;;;;17.80;11.07;;;;;;;;;;5047936;28;20421;-83
2022/03/14 10:45:53;;;;;;;13.13;10.38;;;;;;;;;;5068160;28;20411;-82
2022/03/14 10:48:32;;;;;;;13.70;10.10;;;;;;;;;;5064329;28;20414;-82
2022/03/14 10:51:02;;;;;;;13.35;10.10;;;;;;;;;;5058657;28;20516;-83
2022/03/14 10:53:28;;;;;;;14.10;10.33;;;;;;;;;;5072680;28;20463;-82
2022/03/14 10:55:58;;;;;;;12.47;9.97;;;;;;;;;;5071248;28;20386;-83
2022/03/14 10:58:34;;;;;;;13.20;10.25;;;;;;;;;;5073697;28;20389;-84
2022/03/14 11:01:07;;;;;;;12.73;9.90;;;;;;;;;;5071527;28;20385;-83
2022/03/14 11:03:37;;;;;;;13.38;10.35;;;;;;;;;;5073221;28;20378;-83
2022/03/14 11:06:04;;;;;;;38.67;12.53;;;;;;;;;;5072018;28;20751;-83
2022/03/14 11:08:51;;;;;;;13.65;9.90;;;;;;;;;;5072553;28;20531;-85
2022/03/14 11:11:18;;;;;;;12.77;9.20;;;;;;;;;;5071205;28;20410;-84
2022/03/14 11:13:45;;;;;;;11.00;9.63;;;;;;;;;;5072515;28;20906;-83
2022/03/14 11:16:26;;;;;;;13.70;10.63;;;;;;;;;;5071325;28;20389;-83
2022/03/14 11:18:52;;;;;;;13.68;10.27;;;;;;;;;;5066598;28;20428;-82
2022/03/14 11:21:24;;;;;;;12.48;10.15;;;;;;;;;;5055458;28;20388;-83
2022/03/14 11:23:51;;;;;;;13.57;10.47;;;;;;;;;;5052114;28;20470;-83
2022/03/14 11:26:21;;;;;;;13.13;9.88;;;;;;;;;;5052159;28;20378;-83
2022/03/14 11:28:49;;;;;;;11.60;9.80;;;;;;;;;;5053336;28;20924;-84
2022/03/14 11:31:18;;;;;;;14.30;9.98;;;;;;;;;;5057005;28;20369;-85
2022/03/14 11:33:44;;;;;;;16.10;10.15;;;;;;;;;;5070983;28;20484;-82
2022/03/14 11:36:11;;;;;;;36.78;11.63;;;;;;;;;;5071916;28;20395;-83
2022/03/14 11:38:38;;;;;;;16.92;10.68;;;;;;;;;;5070542;28;20393;-83
2022/03/14 11:41:06;;;;;;;11.98;9.75;;;;;;;;;;5072794;28;20366;-82
2022/03/14 11:43:32;;;;;;;12.63;9.55;;;;;;;;;;5066852;28;20431;-82
2022/03/14 11:46:02;;;;;;;12.40;9.90;;;;;;;;;;5052384;28;20872;-83
2022/03/14 11:48:32;;;;;;;13.07;9.88;;;;;;;;;;5053315;28;20462;-83
2022/03/14 11:51:00;;;;;;;12.65;9.68;;;;;;;;;;5035265;28;20734;-83
2022/03/14 11:53:26;;;;;;;12.80;9.53;;;;;;;;;;5051685;28;20407;-83
2022/03/14 11:55:52;;;;;;;12.10;10.43;;;;;;;;;;5053174;28;20383;-83
2022/03/14 11:58:37;;;;;;;15.30;10.15;;;;;;;;;;5055988;28;20421;-83
2022/03/14 12:01:16;;;;;;;11.70;10.40;;;;;;;;;;5070957;28;20385;-83
2022/03/14 12:03:43;;;;;;;15.18;10.48;;;;;;;;;;5055150;28;20387;-82
2022/03/14 12:06:12;;;;;;;12.80;10.07;;;;;;;;;;5052778;28;20872;-83
2022/03/14 12:08:38;;;;;;;11.93;10.23;;;;;;;;;;5058475;28;20418;-84
2022/03/14 12:11:23;;;;;;;14.70;10.73;;;;;;;;;;5053258;28;20453;-84
2022/03/14 12:13:49;;;;;;;12.07;10.77;;;;;;;;;;5054207;28;20880;-84
2022/03/14 12:16:34;;;;;;;15.20;10.93;;;;;;;;;;5054372;28;20364;-84
2022/03/14 12:19:01;;;;;;;14.52;10.55;;;;;;;;;;5054252;28;20422;-84
2022/03/14 12:21:52;;;;;;;13.35;9.93;;;;;;;;;;5052308;28;20388;-85
2022/03/14 12:24:44;;;;;;;11.65;10.18;;;;;;;;;;5052859;28;20382;-84
2022/03/14 12:27:43;;;;;;;13.82;10.50;;;;;;;;;;5049914;28;20384;-82
2022/03/14 12:30:20;;;;;;;13.50;10.35;;;;;;;;;;5051680;28;20375;-85
2022/03/14 12:33:29;;;;;;;11.77;10.05;;;;;;;;;;5070235;28;20402;-84
2022/03/14 12:36:25;;;;;;;11.93;10.10;;;;;;;;;;5073213;28;20492;-84
2022/03/14 12:39:10;;;;;;;13.15;10.40;;;;;;;;;;5072493;28;20789;-86
2022/03/14 12:41:41;;;;;;;14.75;9.88;;;;;;;;;;5072938;28;20362;-83
2022/03/14 12:44:19;;;;;;;13.95;10.70;;;;;;;;;;5055107;28;20725;-83
2022/03/14 12:46:59;;;;;;;13.13;10.60;;;;;;;;;;5073751;28;20381;-85
2022/03/14 12:49:26;;;;;;;14.68;11.30;;;;;;;;;;5074211;28;20381;-84
2022/03/14 12:52:11;;;;;;;12.55;10.90;;;;;;;;;;5072707;28;20436;-86
2022/03/14 12:54:39;;;;;;;14.35;11.25;;;;;;;;;;5077157;28;20377;-84
2022/03/14 12:57:06;;;;;;;12.60;10.63;;;;;;;;;;5087537;28;20554;-83
2022/03/14 12:59:41;;;;;;;13.05;10.63;;;;;;;;;;5086360;28;20424;-83
2022/03/14 13:02:08;;;;;;;15.20;10.20;;;;;;;;;;5085128;28;20374;-84
2022/03/14 13:04:35;;;;;;;12.85;11.25;;;;;;;;;;5087220;28;20389;-85
2022/03/14 13:07:04;;;;;;;15.27;11.10;;;;;;;;;;5075511;28;20820;-84
2022/03/14 13:09:33;;;;;;;14.93;11.10;;;;;;;;;;5057763;28;20868;-84
2022/03/14 13:12:00;;;;;;;12.52;10.52;;;;;;;;;;5051543;28;20411;-84
2022/03/14 13:14:26;;;;;;;16.17;11.67;;;;;;;;;;5070593;28;20393;-86
2022/03/14 13:16:53;;;;;;;13.48;11.00;;;;;;;;;;5071543;28;20416;-85
2022/03/14 13:19:21;;;;;;;12.27;10.98;;;;;;;;;;5074122;28;20370;-83
2022/03/14 13:21:50;;;;;;;15.47;11.50;;;;;;;;;;5073207;28;20486;-85
2022/03/14 13:24:24;;;;;;;12.95;11.10;;;;;;;;;;5069728;28;21064;-85
2022/03/14 13:26:54;;;;;;;13.75;11.13;;;;;;;;;;5054527;28;20376;-84
2022/03/14 13:29:20;;;;;;;14.60;11.00;;;;;;;;;;5053829;28;20380;-85
2022/03/14 13:31:47;;;;;;;15.25;10.88;;;;;;;;;;5062365;28;20445;-84
2022/03/14 13:34:17;;;;;;;13.90;11.40;;;;;;;;;;5058394;28;20388;-85
2022/03/14 13:36:51;;;;;;;13.38;10.70;;;;;;;;;;5052968;28;20410;-84
2022/03/14 13:39:18;;;;;;;12.63;11.20;;;;;;;;;;5046130;28;20386;-83
2022/03/14 13:41:44;;;;;;;14.20;10.88;;;;;;;;;;5072758;28;20381;-84
2022/03/14 13:44:14;;;;;;;17.02;11.07;;;;;;;;;;5061603;28;20380;-84
2022/03/14 13:46:48;;;;;;;12.15;10.70;;;;;;;;;;5069424;28;20372;-82
2022/03/14 13:49:20;;;;;;;13.80;10.60;;;;;;;;;;5090267;28;20465;-86
2022/03/14 13:51:49;;;;;;;15.23;10.63;;;;;;;;;;5077843;28;20452;-84
2022/03/14 13:54:18;;;;;;;16.63;11.30;;;;;;;;;;5063098;28;20380;-85
2022/03/14 13:56:45;;;;;;;14.27;11.00;;;;;;;;;;5064421;28;20375;-83
2022/03/14 13:59:33;;;;;;;12.53;10.30;;;;;;;;;;5073882;28;20358;-82
2022/03/14 14:02:09;;;;;;;18.70;11.15;;;;;;;;;;5076973;28;20392;-84
2022/03/14 14:04:45;;;;;;;13.68;11.55;;;;;;;;;;5077790;28;20443;-83
2022/03/14 14:07:22;;;;;;;15.82;11.35;;;;;;;;;;5077516;28;20382;-83
2022/03/14 14:09:49;;;;;;;16.55;11.15;;;;;;;;;;5079035;28;20377;-81
2022/03/14 14:12:21;;;;;;;13.88;10.40;;;;;;;;;;5073973;28;20423;-83
2022/03/14 14:14:47;;;;;;;12.10;10.55;;;;;;;;;;5075402;28;20386;-82
2022/03/14 14:17:15;;;;;;;13.73;10.68;;;;;;;;;;5074907;28;20359;-83
2022/03/14 14:20:02;;;;;;;14.10;10.65;;;;;;;;;;5075947;28;20387;-83
2022/03/14 14:22:29;;;;;;;15.80;11.18;;;;;;;;;;5073860;28;20381;-83
2022/03/14 14:24:55;;;;;;;14.07;10.82;;;;;;;;;;5064283;28;20410;-84